Time;durP1;ratioP1;P1;durP2;ratioP2;P2;SDS_P1;SDS_P2;PMS_P1;PMS_P2;Temp;Humidity;BMP_temperature;BMP_pressure;BME280_temperature;BME280_humidity;BME280_pressure;Samples;Min_cycle;Max_cycle;Signal;HPM_P1;HPM_P2
2022/05/23 00:00:27;;;;;;;2.47;1.60;;;;;;;8.88;100.00;99769.05;1737703;82;21085;-90
2022/05/23 00:02:54;;;;;;;2.75;1.65;;;;;;;8.81;100.00;99768.25;1726066;82;21800;-92
2022/05/23 00:05:23;;;;;;;2.22;2.08;;;;;;;8.74;100.00;99772.30;1725870;82;21042;-89
2022/05/23 00:07:51;;;;;;;4.85;2.22;;;;;;;8.65;100.00;99770.44;1757977;81;21561;-90
2022/05/23 00:10:21;;;;;;;2.50;2.30;;;;;;;8.59;100.00;99776.94;1756880;80;21117;-91
2022/05/23 00:12:49;;;;;;;;;;;;;;;8.52;100.00;99787.01;1759300;81;21140;-92
2022/05/23 00:15:20;;;;;;;2.83;2.62;;;;;;;8.45;100.00;99784.98;1756760;80;20194;-90
2022/05/23 00:17:47;;;;;;;4.35;2.30;;;;;;;8.37;100.00;99786.90;1757070;80;21060;-96
2022/05/23 00:20:19;;;;;;;2.30;2.10;;;;;;;8.31;100.00;99793.84;1756793;80;21049;-93
2022/05/23 00:22:46;;;;;;;2.52;2.30;;;;;;;8.28;100.00;99790.22;1723057;83;21763;-93
2022/05/23 00:25:14;;;;;;;6.03;2.55;;;;;;;8.29;100.00;99803.54;1722507;83;20992;-93
2022/05/23 00:27:45;;;;;;;2.67;2.47;;;;;;;8.28;100.00;99803.19;1722812;81;21086;-94
2022/05/23 00:30:19;;;;;;;2.25;2.12;;;;;;;8.25;100.00;99805.55;1751663;80;21556;-91
2022/05/23 00:35:34;;;;;;;2.87;2.60;;;;;;;8.24;100.00;99809.09;1756740;80;21053;-91
2022/05/23 00:38:03;;;;;;;2.92;2.60;;;;;;;8.24;100.00;99813.43;1756649;81;21030;-92
2022/05/23 00:43:54;;;;;;;2.45;2.25;;;;;;;8.19;100.00;99821.56;1757048;80;21491;-96
2022/05/23 00:46:21;;;;;;;2.83;2.37;;;;;;;8.17;100.00;99829.96;1757174;81;21089;-95
2022/05/23 00:48:48;;;;;;;3.55;2.58;;;;;;;8.15;100.00;99833.14;1757124;81;21151;-94
2022/05/23 00:51:18;;;;;;;2.42;2.22;;;;;;;8.08;100.00;99835.37;1756742;81;21053;-86
2022/05/23 00:53:55;;;;;;;3.15;2.17;;;;;;;7.99;100.00;99833.48;1722710;81;21093;-92
2022/05/23 00:56:26;;;;;;;2.33;2.12;;;;;;;7.90;100.00;99840.20;1692302;83;21059;-92
2022/05/23 00:58:59;;;;;;;3.92;2.17;;;;;;;7.86;100.00;99831.84;1716315;81;21654;-92
2022/05/23 01:01:30;;;;;;;3.98;2.40;;;;;;;7.87;100.00;99837.38;1749688;81;21115;-92
2022/05/23 01:03:58;;;;;;;2.50;2.15;;;;;;;7.85;100.00;99839.26;1722981;81;21040;-92
2022/05/23 01:06:25;;;;;;;2.27;2.08;;;;;;;7.85;100.00;99845.73;1755036;80;21088;-90
2022/05/23 01:08:56;;;;;;;3.52;2.45;;;;;;;7.86;100.00;99847.84;1737655;81;21010;-94
2022/05/23 01:11:24;;;;;;;2.42;2.15;;;;;;;7.90;100.00;99856.57;1737898;82;21590;-93
2022/05/23 01:13:53;;;;;;;2.45;2.25;;;;;;;7.99;100.00;99861.55;1738168;82;21069;-93
2022/05/23 01:16:22;;;;;;;3.33;2.20;;;;;;;8.11;100.00;99869.31;1737608;82;21535;-91
2022/05/23 01:18:51;;;;;;;2.52;2.08;;;;;;;8.16;100.00;99866.72;1725867;82;21042;-92
2022/05/23 01:21:29;;;;;;;3.02;2.30;;;;;;;8.20;100.00;99866.02;1737834;82;21047;-89
2022/05/23 01:24:30;;;;;;;2.37;2.10;;;;;;;8.24;100.00;99864.84;1732876;82;20987;-88
2022/05/23 01:26:58;;;;;;;;;;;;;;;8.24;100.00;99868.73;1740702;82;21211;-88
2022/05/23 01:29:35;;;;;;;2.47;2.20;;;;;;;8.13;100.00;99870.02;1734601;82;20202;-90
2022/05/23 01:32:13;;;;;;;3.15;2.22;;;;;;;7.99;100.00;99862.84;1737667;82;21188;-90
2022/05/23 01:34:44;;;;;;;3.55;2.40;;;;;;;7.90;100.00;99865.64;1692680;82;21078;-88
2022/05/23 01:37:13;;;;;;;2.50;2.30;;;;;;;7.85;100.00;99870.36;1734269;82;21515;-87
2022/05/23 01:39:57;;;;;;;2.58;2.20;;;;;;;7.84;100.00;99871.78;1737927;82;21808;-88
2022/05/23 01:42:25;;;;;;;2.40;2.20;;;;;;;7.86;100.00;99875.91;1734254;82;21563;-91
2022/05/23 01:44:53;;;;;;;3.40;2.22;;;;;;;7.90;100.00;99877.31;1737720;82;20980;-91
2022/05/23 01:47:22;;;;;;;3.83;2.27;;;;;;;7.93;100.00;99872.84;1737662;82;21090;-93
2022/05/23 01:49:59;;;;;;;2.50;2.30;;;;;;;7.95;100.00;99874.86;1738095;82;21039;-92
2022/05/23 01:52:41;;;;;;;4.70;2.47;;;;;;;7.93;100.00;99869.80;1737900;82;21278;-91
2022/05/23 01:55:20;;;;;;;2.83;2.30;;;;;;;7.90;100.00;99872.61;1736842;82;21019;-93
2022/05/23 01:57:52;;;;;;;5.72;3.02;;;;;;;7.83;100.00;99870.94;1731215;82;21545;-94
2022/05/23 02:03:06;;;;;;;2.67;2.30;;;;;;;7.73;100.00;99879.89;1737999;82;21433;-93
2022/05/23 02:05:36;;;;;;;2.65;2.25;;;;;;;7.69;100.00;99880.23;1737817;82;21599;-94
2022/05/23 02:08:03;;;;;;;4.97;2.52;;;;;;;7.66;100.00;99880.45;1747867;81;21042;-93
2022/05/23 02:10:31;;;;;;;2.62;2.42;;;;;;;7.64;100.00;99878.47;1757613;81;20998;-95
2022/05/23 02:13:00;;;;;;;2.83;2.52;;;;;;;7.60;100.00;99890.82;1756977;81;21046;-96
2022/05/23 02:15:31;;;;;;;2.60;2.40;;;;;;;7.58;100.00;99890.91;1757517;81;21078;-93
2022/05/23 02:18:17;;;;;;;4.90;2.90;;;;;;;7.59;100.00;99895.64;1757460;81;21246;-94
2022/05/23 02:20:44;;;;;;;2.72;2.50;;;;;;;7.62;100.00;99906.25;1757515;81;21072;-95
2022/05/23 02:23:12;;;;;;;3.65;2.30;;;;;;;7.63;100.00;99906.61;1757434;81;21030;-96
2022/05/23 02:25:40;;;;;;;3.40;2.75;;;;;;;7.64;100.00;99905.19;1757259;81;21006;-96
2022/05/23 02:28:25;;;;;;;2.80;2.37;;;;;;;7.67;100.00;99908.02;1757374;81;21046;-95
2022/05/23 02:30:53;;;;;;;2.92;2.72;;;;;;;7.66;100.00;99899.88;1756876;81;21143;-89
2022/05/23 02:33:24;;;;;;;3.27;2.98;;;;;;;7.65;100.00;99900.84;1738736;80;21152;-87
2022/05/23 02:35:54;;;;;;;3.12;2.77;;;;;;;7.65;100.00;99900.84;1751816;81;21065;-87
2022/05/23 02:38:21;;;;;;;3.20;2.77;;;;;;;7.65;100.00;99900.84;1756956;80;21057;-89
2022/05/23 02:40:49;;;;;;;6.85;2.90;;;;;;;7.65;100.00;99892.59;1756669;80;21093;-88
2022/05/23 02:43:17;;;;;;;3.83;3.45;;;;;;;7.67;100.00;99901.53;1756783;81;21161;-85
2022/05/23 02:45:46;;;;;;;4.53;3.30;;;;;;;7.67;100.00;99898.49;1751550;81;21283;-90
2022/05/23 02:48:13;;;;;;;3.85;3.00;;;;;;;7.67;100.00;99901.09;1756579;81;21122;-89
2022/05/23 02:50:41;;;;;;;3.15;2.95;;;;;;;7.71;100.00;99902.49;1756538;81;21527;-91
2022/05/23 02:53:09;;;;;;;3.55;3.15;;;;;;;7.77;100.00;99906.40;1756755;81;21025;-87
2022/05/23 02:55:41;;;;;;;3.72;3.10;;;;;;;7.85;100.00;99909.25;1754480;81;21253;-92
2022/05/23 02:58:08;;;;;;;8.40;3.35;;;;;;;7.89;100.00;99906.77;1756459;81;21302;-92
2022/05/23 03:00:36;;;;;;;3.42;3.12;;;;;;;7.96;100.00;99911.51;1757160;80;21084;-90
2022/05/23 03:03:08;;;;;;;3.95;3.30;;;;;;;8.01;100.00;99915.86;1744085;81;21042;-90
2022/05/23 03:05:46;;;;;;;3.67;3.10;;;;;;;8.09;100.00;99931.67;1718521;81;21185;-89
2022/05/23 03:08:18;;;;;;;3.37;3.00;;;;;;;8.15;100.00;99931.69;1756967;81;21148;-88
2022/05/23 03:10:45;;;;;;;7.25;3.47;;;;;;;8.21;100.00;99936.40;1756735;81;21097;-89
2022/05/23 03:13:13;;;;;;;3.55;3.25;;;;;;;8.29;100.00;99935.83;1756623;81;21077;-89
2022/05/23 03:15:40;;;;;;;3.55;3.25;;;;;;;8.36;100.00;99938.30;1756671;81;20993;-89
2022/05/23 03:18:08;;;;;;;5.53;3.52;;;;;;;8.43;100.00;99939.48;1756308;80;21042;-90
2022/05/23 03:20:37;;;;;;;3.40;3.10;;;;;;;8.49;100.00;99944.22;1751618;80;21169;-87
2022/05/23 03:28:38;;;;;;;4.47;3.75;;;;;;;8.67;100.00;99939.85;1756753;81;21077;-88
2022/05/23 03:31:05;;;;;;;3.47;3.10;;;;;;;8.74;100.00;99946.67;1756930;80;21620;-89
2022/05/23 03:33:35;;;;;;;4.00;3.00;;;;;;;8.81;100.00;99945.27;1756730;81;21160;-86
2022/05/23 03:36:03;;;;;;;5.90;3.22;;;;;;;8.86;100.00;99939.23;1722843;81;21530;-88
2022/05/23 03:38:30;;;;;;;4.08;2.95;;;;;;;8.92;100.00;99943.13;1757276;81;21491;-87
2022/05/23 03:41:08;;;;;;;4.03;3.20;;;;;;;8.98;100.00;99942.14;1756158;81;21084;-89
2022/05/23 03:43:35;;;;;;;3.75;3.20;;;;;;;9.06;100.00;99938.95;1735020;81;21071;-89
2022/05/23 03:46:11;;;;;;;3.50;3.20;;;;;;;9.14;100.00;99941.77;1723834;81;21804;-88
2022/05/23 03:48:39;;;;;;;3.80;3.05;;;;;;;9.23;100.00;99944.09;1754273;81;21074;-92
2022/05/23 03:51:08;;;;;;;4.17;3.20;;;;;;;9.33;100.00;99945.95;1754438;81;21015;-91
2022/05/23 03:53:36;;;;;;;3.30;3.00;;;;;;;9.39;100.00;99944.99;1755804;81;21827;-89
2022/05/23 03:56:05;;;;;;;3.72;3.25;;;;;;;9.49;100.00;99950.75;1719948;82;21167;-90
2022/05/23 03:58:44;;;;;;;3.95;2.60;;;;;;;9.57;100.00;99958.75;1753860;80;21385;-91
2022/05/23 04:01:22;;;;;;;4.37;3.22;;;;;;;9.67;100.00;99960.11;1755220;81;21137;-90
2022/05/23 04:03:51;;;;;;;4.72;3.20;;;;;;;9.79;100.00;99956.49;1747076;81;21593;-91
2022/05/23 04:06:18;;;;;;;3.02;2.67;;;;;;;9.89;100.00;99956.58;1724964;82;21539;-91
2022/05/23 04:08:52;;;;;;;3.35;2.60;;;;;;;9.98;100.00;99953.19;1686581;83;21181;-89
2022/05/23 04:11:21;;;;;;;2.98;2.77;;;;;;;10.11;100.00;99954.30;1706207;82;21171;-90
2022/05/23 04:13:48;;;;;;;3.20;2.85;;;;;;;10.24;100.00;99960.59;1682513;83;21009;-89
2022/05/23 04:16:15;;;;;;;2.55;2.35;;;;;;;10.36;100.00;99955.67;1704638;83;21545;-89
2022/05/23 04:18:44;;;;;;;4.28;2.95;;;;;;;10.49;100.00;99963.75;1704514;82;21553;-88
2022/05/23 04:21:12;;;;;;;2.62;2.40;;;;;;;10.61;100.00;99960.12;1673046;85;21047;-89
2022/05/23 04:23:41;;;;;;;2.67;2.47;;;;;;;10.72;100.00;99960.00;1714319;81;21355;-88
2022/05/23 04:26:09;;;;;;;4.65;2.92;;;;;;;10.86;100.00;99963.19;1742329;81;21087;-89
2022/05/23 04:28:41;;;;;;;2.98;2.58;;;;;;;10.98;100.00;99958.69;1742424;81;21048;-89
2022/05/23 04:31:10;;;;;;;2.90;2.60;;;;;;;11.09;100.00;99966.40;1737470;82;21129;-91
2022/05/23 04:36:43;;;;;;;2.60;2.40;;;;;;;11.14;100.00;99966.81;1709566;83;21637;-89
2022/05/23 04:39:11;;;;;;;3.27;2.55;;;;;;;11.16;100.00;99964.09;1712955;83;21605;-92
2022/05/23 04:41:39;;;;;;;3.70;2.67;;;;;;;11.20;100.00;99964.15;1713172;83;21068;-90
2022/05/23 04:44:07;;;;;;;2.60;2.35;;;;;;;11.26;100.00;99963.59;1712972;83;21128;-91
2022/05/23 04:46:35;;;;;;;2.52;2.33;;;;;;;11.36;100.00;99961.83;1712767;83;21076;-91
2022/05/23 04:52:05;;;;;;;2.50;2.30;;;;;;;11.64;100.00;99954.16;1709626;83;21072;-90
2022/05/23 04:54:36;;;;;;;3.27;2.33;;;;;;;11.86;100.00;99954.00;1709416;83;42988;-91
2022/05/23 04:57:06;;;;;;;2.25;2.02;;;;;;;12.03;100.00;99952.48;1712812;83;21009;-92
2022/05/23 04:59:35;;;;;;;3.37;2.33;;;;;;;12.19;100.00;99947.49;1712891;83;21020;-90
2022/05/23 05:02:04;;;;;;;4.05;2.62;;;;;;;12.34;100.00;99953.55;1713046;83;21777;-89
2022/05/23 05:04:32;;;;;;;3.55;2.50;;;;;;;12.38;100.00;99945.29;1712664;83;21064;-92
2022/05/23 05:07:00;;;;;;;3.72;2.40;;;;;;;12.44;100.00;99946.02;1713165;83;20985;-91
2022/05/23 05:09:28;;;;;;;2.80;2.52;;;;;;;12.47;100.00;99948.82;1712595;83;21052;-92
2022/05/23 05:11:58;;;;;;;2.27;2.02;;;;;;;12.49;100.00;99950.81;1728621;81;21004;-91
2022/05/23 05:14:27;;;;;;;2.30;2.10;;;;;;;12.50;100.00;99952.46;1734831;82;21146;-92
2022/05/23 05:16:56;;;;;;;2.42;2.00;;;;;;;12.53;100.00;99953.48;1739354;82;21056;-88
2022/05/23 05:19:23;;;;;;;2.90;2.47;;;;;;;12.59;100.00;99958.59;1739442;82;21059;-90
2022/05/23 05:21:54;;;;;;;2.00;1.80;;;;;;;12.64;100.00;99957.70;1739397;82;21142;-89
2022/05/23 05:24:40;;;;;;;4.25;2.25;;;;;;;12.75;100.00;99956.67;1738964;82;21067;-92
2022/05/23 05:27:15;;;;;;;3.33;2.10;;;;;;;12.87;100.00;99958.11;1735570;82;21236;-91
2022/05/23 05:29:44;;;;;;;2.40;2.20;;;;;;;12.95;100.00;99965.23;1739183;82;21082;-92
2022/05/23 05:32:17;;;;;;;2.47;2.25;;;;;;;13.00;100.00;99959.56;1739344;82;21083;-92
2022/05/23 05:35:00;;;;;;;2.50;2.30;;;;;;;13.08;100.00;99959.65;1736732;82;21039;-91
2022/05/23 05:37:36;;;;;;;2.40;2.12;;;;;;;13.18;100.00;99968.72;1737842;82;21047;-93
2022/05/23 05:40:05;;;;;;;3.35;2.20;;;;;;;13.26;100.00;99971.42;1739815;82;21127;-93
2022/05/23 05:42:40;;;;;;;2.50;2.22;;;;;;;13.30;100.00;99973.25;1736201;82;21043;-93
2022/05/23 05:45:15;;;;;;;1.98;1.87;;;;;;;13.37;100.00;99972.98;1714386;82;21008;-90
2022/05/23 05:47:46;;;;;;;1.70;1.60;;;;;;;13.46;100.00;99972.13;1735471;82;21017;-89
2022/05/23 05:50:21;;;;;;;2.20;2.00;;;;;;;13.50;100.00;99972.65;1739724;82;21146;-92
2022/05/23 05:52:58;;;;;;;2.60;2.33;;;;;;;13.55;100.00;99975.63;1734581;82;22220;-90
2022/05/23 05:55:28;;;;;;;3.05;2.00;;;;;;;13.54;100.00;99979.23;1739475;81;20996;-93
2022/05/23 05:57:55;;;;;;;2.75;2.33;;;;;;;13.49;100.00;99981.00;1739331;82;21536;-93
2022/05/23 06:00:23;;;;;;;2.10;2.00;;;;;;;13.49;100.00;99984.92;1716104;82;21059;-92
2022/05/23 06:02:51;;;;;;;2.20;2.00;;;;;;;13.55;100.00;99977.77;1739675;82;21094;-92
2022/05/23 06:05:21;;;;;;;2.80;2.40;;;;;;;13.64;100.00;99981.77;1715913;82;21161;-93
2022/05/23 06:13:24;;;;;;;2.67;2.33;;;;;;;13.68;100.00;99973.47;1735518;82;21082;-93
2022/05/23 06:16:08;;;;;;;2.15;1.95;;;;;;;13.75;100.00;99971.55;1743554;79;21571;-92
2022/05/23 06:18:47;;;;;;;2.75;2.37;;;;;;;13.79;100.00;99968.48;1755755;79;21905;-91
2022/05/23 06:21:16;;;;;;;3.65;2.35;;;;;;;13.94;100.00;99966.61;1757652;79;21077;-92
2022/05/23 06:23:48;;;;;;;2.67;2.47;;;;;;;14.05;100.00;99967.68;1775917;79;21090;-92
2022/05/23 06:26:22;;;;;;;5.17;2.60;;;;;;;14.10;100.00;99972.45;1769470;80;21040;-92
2022/05/23 06:29:08;;;;;;;3.87;2.72;;;;;;;14.14;100.00;99969.34;1770138;80;21525;-91
2022/05/23 06:31:35;;;;;;;3.17;2.52;;;;;;;14.15;100.00;99965.75;1769962;80;21224;-89
2022/05/23 06:34:03;;;;;;;4.00;2.60;;;;;;;14.14;100.00;99960.69;1769625;80;21008;-90
2022/05/23 06:36:30;;;;;;;3.42;2.70;;;;;;;14.15;100.00;99959.71;1767671;80;21048;-90
2022/05/23 06:38:58;;;;;;;5.55;2.50;;;;;;;14.18;100.00;99956.30;1770206;80;21016;-91
2022/05/23 06:41:33;;;;;;;2.90;2.67;;;;;;;14.25;100.00;99955.20;1759051;81;21097;-89
2022/05/23 06:44:11;;;;;;;5.28;3.00;;;;;;;14.41;100.00;99949.70;1765557;80;21089;-89
2022/05/23 06:46:50;;;;;;;4.35;2.90;;;;;;;14.52;100.00;99950.72;1746232;81;21537;-89
2022/05/23 06:49:28;;;;;;;4.03;2.70;;;;;;;14.57;100.00;99949.78;1765514;80;21491;-89
2022/05/23 06:52:15;;;;;;;3.30;3.00;;;;;;;14.60;100.00;99952.06;1766225;80;21498;-89
2022/05/23 06:54:44;;;;;;;4.80;3.20;;;;;;;14.58;100.00;99957.14;1766656;80;21052;-89
2022/05/23 06:57:15;;;;;;;7.65;3.33;;;;;;;14.58;100.00;99957.14;1764743;80;21442;-91
2022/05/23 06:59:44;;;;;;;3.55;2.83;;;;;;;14.50;100.00;99958.75;1761107;81;21054;-93
2022/05/23 07:02:11;;;;;;;3.58;2.52;;;;;;;14.44;100.00;99954.14;1761092;81;21030;-93
2022/05/23 07:13:13;;;;;;;3.75;2.50;;;;;;;14.78;100.00;99959.85;1761296;79;21059;-93
2022/05/23 07:15:49;;;;;;;4.50;3.00;;;;;;;14.84;100.00;99954.47;1699532;80;21036;-92
2022/05/23 07:18:19;;;;;;;4.17;3.12;;;;;;;14.83;100.00;99962.00;1808282;78;21494;-91
2022/05/23 07:20:47;;;;;;;;;;;;;;;14.81;100.00;99966.09;1811344;79;21724;-92
2022/05/23 07:23:16;;;;;;;5.90;2.98;;;;;;;14.82;100.00;99969.05;1807251;78;20784;-92
2022/05/23 07:25:47;;;;;;;4.67;3.17;;;;;;;14.83;100.00;99969.39;1782464;78;21048;-92
2022/05/23 07:28:14;;;;;;;5.58;3.47;;;;;;;14.89;100.00;99967.94;1762724;79;21301;-92
2022/05/23 07:30:43;;;;;;;3.35;2.98;;;;;;;14.97;100.00;99971.05;1742007;80;21091;-94
2022/05/23 07:33:11;;;;;;;3.37;3.08;;;;;;;15.05;100.00;99970.27;1765480;80;20996;-92
2022/05/23 07:35:59;;;;;;;4.45;2.92;;;;;;;15.09;100.00;99971.58;1765051;80;21246;-92
2022/05/23 07:38:30;;;;;;;9.18;3.70;;;;;;;15.12;100.00;99966.83;1765350;80;28244;-92
2022/05/23 07:41:00;;;;;;;3.10;2.70;;;;;;;15.25;100.00;99975.55;1680006;84;21070;-92
2022/05/23 07:43:29;;;;;;;5.83;2.83;;;;;;;15.40;100.00;99976.21;1681747;82;21055;-92
2022/05/23 07:45:58;;;;;;;6.00;4.03;;;;;;;15.50;100.00;99974.27;1715822;82;21542;-92
2022/05/23 07:48:27;;;;;;;6.05;3.77;;;;;;;15.60;100.00;99977.55;1765506;80;21564;-91
2022/05/23 07:50:56;;;;;;;4.58;3.50;;;;;;;15.71;100.00;99979.50;1764664;80;21070;-91
2022/05/23 08:01:48;;;;;;;5.47;3.27;;;;;;;16.10;100.00;99978.86;1765696;80;21218;-91
2022/05/23 08:04:16;;;;;;;3.33;2.80;;;;;;;16.25;100.00;99977.66;1765035;80;21068;-91
2022/05/23 08:06:47;;;;;;;3.58;2.98;;;;;;;16.33;100.00;99980.27;1761757;80;21016;-91
2022/05/23 08:09:17;;;;;;;4.85;3.42;;;;;;;16.27;100.00;99983.58;1765497;80;21087;-91
2022/05/23 08:11:50;;;;;;;4.97;2.95;;;;;;;16.21;100.00;99977.18;1757559;79;21101;-91
2022/05/23 08:14:19;;;;;;;2.52;2.33;;;;;;;16.25;100.00;99973.72;1767171;80;21165;-91
2022/05/23 08:16:58;;;;;;;3.08;2.58;;;;;;;16.47;100.00;99972.66;1766195;81;21089;-91
2022/05/23 08:19:30;;;;;;;2.65;2.45;;;;;;;16.74;100.00;99967.97;1746269;81;21008;-92
2022/05/23 08:22:00;;;;;;;3.40;2.60;;;;;;;16.95;100.00;99975.29;1766378;81;21061;-93
2022/05/23 08:24:29;;;;;;;2.98;2.75;;;;;;;17.11;100.00;99978.31;1769978;81;21086;-91
2022/05/23 08:26:58;;;;;;;3.77;2.83;;;;;;;17.14;100.00;99975.34;1746090;81;21470;-92
2022/05/23 08:29:26;;;;;;;4.53;2.70;;;;;;;17.13;100.00;99973.70;1769796;80;21002;-92
2022/05/23 08:31:55;;;;;;;3.83;2.77;;;;;;;17.07;100.00;99970.45;1768892;80;21504;-91
2022/05/23 08:34:24;;;;;;;3.67;2.58;;;;;;;17.05;100.00;99968.48;1743114;80;21015;-93
2022/05/23 08:36:52;;;;;;;3.37;2.70;;;;;;;17.13;100.00;99973.70;1770115;80;21077;-91
2022/05/23 08:39:20;;;;;;;3.62;2.50;;;;;;;17.17;100.00;99973.69;1746015;80;21217;-91
2022/05/23 08:41:55;;;;;;;3.62;2.42;;;;;;;17.24;100.00;99969.84;1766177;80;21030;-92
2022/05/23 08:44:51;;;;;;;5.33;2.87;;;;;;;17.45;100.00;99970.52;1713628;83;21060;-93
2022/05/23 08:47:37;;;;;;;2.80;2.60;;;;;;;17.63;100.00;99965.78;1750060;81;21030;-92
2022/05/23 08:50:26;;;;;;;5.62;3.00;;;;;;;17.76;100.00;99972.24;1763057;80;21515;-92
2022/05/23 08:53:06;;;;;;;3.90;2.70;;;;;;;17.61;100.00;99966.96;1751612;80;21811;-92
2022/05/23 08:55:43;;;;;;;3.58;2.65;;;;;;;17.33;99.21;99974.90;1744462;80;21022;-90
2022/05/23 09:06:48;;;;;;;3.95;2.67;;;;;;;17.01;92.10;99966.70;1814602;79;22778;-91
2022/05/23 09:09:20;;;;;;;3.80;2.27;;;;;;;16.93;78.12;99971.53;1787315;80;21061;-91
2022/05/23 09:11:52;;;;;;;2.70;2.50;;;;;;;16.93;73.86;99967.59;1787500;79;21783;-92
2022/05/23 09:14:22;;;;;;;6.33;2.75;;;;;;;16.90;64.76;99975.77;1787806;80;21025;-91
2022/05/23 09:16:54;;;;;;;2.83;2.62;;;;;;;16.83;67.11;99974.83;1757378;80;21065;-91
2022/05/23 09:19:35;;;;;;;;;;;;;;;16.77;67.37;99970.27;1790201;80;21028;-91
2022/05/23 09:22:20;;;;;;;3.30;2.42;;;;;;;16.75;65.71;99978.81;1787022;80;20175;-92
2022/05/23 09:24:59;;;;;;;3.47;3.10;;;;;;;16.73;64.53;99973.73;1786171;80;21182;-91
2022/05/23 09:27:39;;;;;;;3.30;2.60;;;;;;;16.75;64.65;99974.87;1772672;80;21108;-92
2022/05/23 09:30:10;;;;;;;5.35;2.75;;;;;;;16.80;67.90;99969.91;1769239;80;21629;-92
2022/05/23 09:33:01;;;;;;;3.62;2.77;;;;;;;16.85;68.54;99966.28;1787046;79;21554;-92
2022/05/23 09:35:49;;;;;;;4.40;2.77;;;;;;;16.97;70.66;99970.69;1742102;81;21089;-93
2022/05/23 09:38:29;;;;;;;4.10;2.58;;;;;;;17.16;71.58;99966.28;1756508;81;21817;-94
2022/05/23 09:40:58;;;;;;;3.52;2.92;;;;;;;17.35;68.81;99972.89;1751410;81;21624;-94
2022/05/23 09:49:20;;;;;;;3.95;2.52;;;;;;;17.98;69.59;99970.59;1787650;80;21100;-94
2022/05/23 09:52:04;;;;;;;5.60;2.80;;;;;;;18.15;60.24;99969.12;1787323;79;22181;-94
2022/05/23 09:54:51;;;;;;;3.87;2.77;;;;;;;18.29;58.14;99965.18;1781399;80;21692;-94
2022/05/23 09:57:36;;;;;;;2.58;2.37;;;;;;;18.44;55.43;99963.03;1771180;79;21117;-93
2022/05/23 10:00:22;;;;;;;3.77;2.55;;;;;;;18.40;54.16;99967.02;1773366;80;21021;-92
2022/05/23 10:03:07;;;;;;;3.40;2.77;;;;;;;18.01;52.09;99977.31;1783959;79;21005;-93
2022/05/23 10:05:40;;;;;;;4.83;2.77;;;;;;;17.63;58.73;99985.52;1785633;79;21285;-92
2022/05/23 10:08:31;;;;;;;5.83;3.22;;;;;;;17.42;60.24;99982.23;1782595;80;21049;-91
2022/05/23 10:11:21;;;;;;;4.35;3.10;;;;;;;17.29;57.19;99978.86;1782315;79;21061;-91
2022/05/23 10:13:59;;;;;;;3.58;2.45;;;;;;;17.21;58.08;99981.55;1771046;80;21081;-94
2022/05/23 10:16:49;;;;;;;4.33;3.08;;;;;;;17.13;58.01;99978.96;1782385;80;21042;-93
2022/05/23 10:19:38;;;;;;;5.08;2.50;;;;;;;17.00;66.42;99979.05;1763043;80;21155;-92
2022/05/23 10:22:16;;;;;;;3.42;2.80;;;;;;;16.84;60.47;99981.22;1686794;83;21089;-92
2022/05/23 10:25:05;;;;;;;2.35;2.15;;;;;;;16.63;61.33;99979.68;1713986;82;21001;-92
2022/05/23 10:27:44;;;;;;;3.72;2.70;;;;;;;16.52;75.22;99982.19;1718490;83;21548;-92
2022/05/23 10:30:16;;;;;;;4.05;2.65;;;;;;;16.52;82.86;99980.88;1715973;82;21095;-91
2022/05/23 10:32:48;;;;;;;;;;;;;;;16.58;82.52;99974.12;1686779;83;21626;-92
2022/05/23 10:35:26;;;;;;;5.35;2.92;;;;;;;16.65;80.79;99985.09;1701544;82;20167;-93
2022/05/23 10:44:02;;;;;;;5.40;2.55;;;;;;;17.55;69.95;99979.01;1718807;83;21036;-92
2022/05/23 10:46:34;;;;;;;5.22;2.98;;;;;;;17.69;62.14;99979.22;1698740;83;21259;-92
2022/05/23 10:49:37;;;;;;;4.60;2.58;;;;;;;17.88;54.87;99969.52;1725553;83;21424;-91
2022/05/23 10:52:13;;;;;;;4.62;3.05;;;;;;;18.18;57.11;99970.89;1704267;83;21047;-92
2022/05/23 10:55:01;;;;;;;32.15;24.75;;;;;;;18.54;64.82;99959.62;1729100;82;21043;-91
2022/05/23 10:58:07;;;;;;;15.95;14.20;;;;;;;18.72;67.32;99961.03;1726851;83;21157;-92
2022/05/23 11:00:45;;;;;;;5.35;2.75;;;;;;;18.69;63.36;99959.58;1704735;83;21420;-92
2022/05/23 11:03:18;;;;;;;5.67;3.42;;;;;;;18.33;69.41;99960.84;1722559;83;21031;-92
2022/05/23 11:05:53;;;;;;;3.35;2.87;;;;;;;17.93;68.57;99972.42;1714855;82;21054;-92
2022/05/23 11:08:45;;;;;;;3.70;2.90;;;;;;;17.65;65.64;99965.11;1698943;83;21099;-89
2022/05/23 11:11:32;;;;;;;2.80;2.50;;;;;;;17.50;80.92;99970.33;1719269;82;21101;-92
2022/05/23 11:14:22;;;;;;;3.90;2.50;;;;;;;17.46;72.05;99973.00;1713458;83;21302;-92
2022/05/23 11:16:55;;;;;;;3.87;2.92;;;;;;;17.46;86.08;99973.48;1690064;83;21080;-91
2022/05/23 11:19:34;;;;;;;3.02;2.70;;;;;;;17.39;64.40;99974.67;1723131;82;21088;-92
2022/05/23 11:22:28;;;;;;;4.80;2.95;;;;;;;17.32;76.83;99975.89;1753772;80;20990;-92
2022/05/23 11:25:20;;;;;;;3.50;3.10;;;;;;;17.27;69.10;99977.41;1742294;81;20999;-91
2022/05/23 11:34:02;;;;;;;3.47;2.90;;;;;;;17.19;68.36;99976.94;1761183;80;21597;-91
2022/05/23 11:36:56;;;;;;;5.72;3.33;;;;;;;17.14;80.01;99974.86;1742569;82;21028;-90
2022/05/23 11:39:05;;;;;;;3.87;2.77;;;;;;;17.10;83.87;99972.24;1741453;82;21075;-91
2022/05/23 11:41:39;;;;;;;3.40;2.85;;;;;;;17.13;90.83;99984.22;1762314;80;21050;-92
2022/05/23 11:44:48;;;;;;;4.05;2.60;;;;;;;17.31;92.19;99976.88;1710967;82;20934;-91
2022/05/23 11:47:21;;;;;;;2.87;2.52;;;;;;;17.78;97.88;99976.84;1594727;88;21106;-91
2022/05/23 11:50:03;;;;;;;2.95;2.40;;;;;;;18.45;99.79;99972.58;1686947;82;21076;-91
2022/05/23 11:52:36;;;;;;;5.10;2.80;;;;;;;18.82;69.84;99964.20;1731633;82;21037;-91
2022/05/23 11:55:04;;;;;;;3.10;2.80;;;;;;;18.94;66.53;99963.76;1720152;82;21164;-91
2022/05/23 11:57:37;;;;;;;3.15;2.70;;;;;;;18.91;59.60;99969.69;1743110;82;21024;-91
2022/05/23 12:00:10;;;;;;;5.37;2.33;;;;;;;18.76;56.21;99973.66;1768665;80;21062;-92
2022/05/23 12:02:40;;;;;;;7.55;2.72;;;;;;;18.62;57.65;99972.39;1740188;82;21012;-90
2022/05/23 12:05:12;;;;;;;3.25;2.60;;;;;;;18.51;73.34;99970.52;1755182;80;20994;-91
2022/05/23 12:07:56;;;;;;;3.87;2.50;;;;;;;18.38;78.22;99979.58;1763237;80;22289;-91
2022/05/23 12:10:30;;;;;;;3.83;2.80;;;;;;;18.35;86.04;99981.25;1760251;80;21093;-91
2022/05/23 12:13:34;;;;;;;3.92;2.60;;;;;;;18.36;74.58;99971.03;1759658;80;20982;-90
2022/05/23 12:16:34;;;;;;;2.87;2.40;;;;;;;18.28;76.36;99985.10;1750150;80;21434;-91
2022/05/23 12:19:43;;;;;;;3.92;2.77;;;;;;;18.06;82.36;99988.16;1710755;82;21100;-91
2022/05/23 12:22:22;;;;;;;3.27;2.87;;;;;;;17.69;80.94;99993.22;1765573;80;21267;-91
2022/05/23 12:25:13;;;;;;;3.47;2.75;;;;;;;17.24;84.21;99988.27;1743247;80;20937;-91
2022/05/23 12:27:51;;;;;;;4.95;2.52;;;;;;;16.91;100.00;99982.67;1762441;80;20995;-90
2022/05/23 12:30:24;;;;;;;4.33;2.67;;;;;;;16.67;90.80;99989.69;1776286;80;21101;-92
2022/05/23 12:33:04;;;;;;;4.83;2.80;;;;;;;16.50;100.00;99993.36;1756098;80;21011;-92
2022/05/23 12:35:44;;;;;;;6.20;2.87;;;;;;;16.38;100.00;99998.16;1753376;80;21786;-91
2022/05/23 12:38:44;;;;;;;5.78;3.15;;;;;;;16.30;93.52;99997.70;1772493;80;21137;-93
2022/05/23 12:41:42;;;;;;;5.53;2.83;;;;;;;16.27;77.11;100001.12;1756877;80;21109;-92
2022/05/23 12:44:49;;;;;;;4.22;2.83;;;;;;;16.28;94.41;100000.98;1771059;80;21057;-92
2022/05/23 12:47:57;;;;;;;4.22;3.12;;;;;;;16.35;87.07;100003.26;1748120;80;21022;-91
2022/05/23 12:50:58;;;;;;;6.97;2.67;;;;;;;16.42;79.77;100009.15;1774164;80;21765;-90
2022/05/23 12:53:55;;;;;;;5.10;2.72;;;;;;;16.48;100.00;100007.98;1769527;80;21050;-91
2022/05/23 12:56:52;;;;;;;4.45;2.80;;;;;;;16.59;100.00;100005.96;1741969;80;20943;-91
2022/05/23 13:00:07;;;;;;;4.33;2.70;;;;;;;16.72;90.98;99996.55;1767780;80;21056;-91
2022/05/23 13:02:55;;;;;;;3.77;2.85;;;;;;;16.84;89.68;100002.77;1774557;80;20999;-93
2022/05/23 13:05:29;;;;;;;4.22;3.00;;;;;;;16.88;85.16;100000.10;1766569;80;21913;-90
2022/05/23 13:08:26;;;;;;;4.03;3.30;;;;;;;16.90;87.58;100000.75;1755732;80;21055;-91
2022/05/23 13:11:04;;;;;;;3.98;3.15;;;;;;;16.93;100.00;100000.45;1741917;80;21094;-91
2022/05/23 13:13:40;;;;;;;4.47;3.00;;;;;;;17.00;100.00;100005.34;1759159;80;21097;-92
2022/05/23 13:16:34;;;;;;;5.08;2.75;;;;;;;17.11;92.14;100004.61;1775145;80;21066;-96